Time;durP1;ratioP1;P1;durP2;ratioP2;P2;SDS_P1;SDS_P2;PMS_P1;PMS_P2;Temp;Humidity;BMP_temperature;BMP_pressure;BME280_temperature;BME280_humidity;BME280_pressure;Samples;Min_cycle;Max_cycle;Signal;HPM_P1;HPM_P2
2022/09/30 00:02:01;;;;;;;7.25;5.65;;;;;;;6.38;100.00;99891.44;5263263;28;20024;-72
2022/09/30 00:04:31;;;;;;;7.80;5.38;;;;;;;6.26;100.00;99897.00;5263152;28;20570;-72
2022/09/30 00:07:02;;;;;;;8.48;5.35;;;;;;;6.31;100.00;99901.16;5262152;28;20070;-72
2022/09/30 00:09:32;;;;;;;8.85;5.88;;;;;;;6.25;100.00;99903.09;5262785;28;20031;-72
2022/09/30 00:12:03;;;;;;;8.88;5.78;;;;;;;6.24;100.00;99893.59;5262783;28;20042;-71
2022/09/30 00:14:33;;;;;;;7.22;5.30;;;;;;;6.07;100.00;99904.44;5262840;28;20064;-72
2022/09/30 00:17:04;;;;;;;8.02;5.47;;;;;;;6.18;100.00;99901.53;5257936;28;20493;-72
2022/09/30 00:19:34;;;;;;;7.72;5.68;;;;;;;6.12;100.00;99904.31;5262263;28;20034;-72
2022/09/30 00:22:04;;;;;;;7.22;5.60;;;;;;;5.97;100.00;99907.34;5258849;28;20020;-72
2022/09/30 00:24:35;;;;;;;8.23;5.40;;;;;;;6.00;100.00;99905.53;5254344;28;20024;-72
2022/09/30 00:27:05;;;;;;;8.13;5.70;;;;;;;5.97;100.00;99905.63;5258057;28;20303;-71
2022/09/30 00:29:35;;;;;;;7.50;5.68;;;;;;;6.04;100.00;99914.06;5253696;28;20028;-72
2022/09/30 00:32:05;;;;;;;8.10;5.30;;;;;;;5.91;100.00;99921.31;5262616;28;20362;-72
2022/09/30 00:34:36;;;;;;;8.25;5.50;;;;;;;5.78;100.00;99917.34;5263132;28;20244;-72
2022/09/30 00:37:07;;;;;;;7.45;5.40;;;;;;;5.88;100.00;99912.81;5261680;28;20024;-72
2022/09/30 00:39:37;;;;;;;8.57;5.85;;;;;;;5.84;100.00;99919.81;5258317;28;20127;-71
2022/09/30 00:42:13;;;;;;;8.00;5.70;;;;;;;5.86;100.00;99917.16;5262082;28;20110;-72
2022/09/30 00:44:51;;;;;;;9.50;6.00;;;;;;;5.89;100.00;99911.91;5251295;28;20038;-71
2022/09/30 00:47:39;;;;;;;8.48;5.78;;;;;;;5.92;100.00;99914.41;5258135;28;20047;-72
2022/09/30 00:50:24;;;;;;;9.57;5.75;;;;;;;5.80;100.00;99913.00;5253560;28;20516;-72
2022/09/30 00:53:08;;;;;;;9.53;5.80;;;;;;;5.77;100.00;99907.84;5255956;28;20397;-72
2022/09/30 00:56:11;;;;;;;9.35;6.03;;;;;;;5.96;100.00;99903.91;5257812;28;20033;-72
2022/09/30 00:58:49;;;;;;;7.32;5.53;;;;;;;5.97;100.00;99904.75;5234868;28;20123;-72
2022/09/30 01:01:21;;;;;;;7.60;5.90;;;;;;;5.98;100.00;99907.31;5259521;28;20199;-72
2022/09/30 01:04:22;;;;;;;9.40;5.80;;;;;;;5.92;100.00;99915.25;5261714;28;20035;-72
2022/09/30 01:06:52;;;;;;;7.85;5.75;;;;;;;6.02;100.00;99921.03;5239882;28;20040;-72
2022/09/30 01:09:22;;;;;;;9.00;5.82;;;;;;;6.12;100.00;99914.69;5261591;28;20074;-72
2022/09/30 01:11:53;;;;;;;10.00;5.45;;;;;;;6.08;100.00;99913.09;5261719;28;20447;-72
2022/09/30 01:14:26;;;;;;;7.65;5.90;;;;;;;6.26;100.00;99912.56;5259904;28;20781;-72
2022/09/30 01:17:13;;;;;;;10.48;5.28;;;;;;;6.13;100.00;99916.41;5259582;28;20032;-72
2022/09/30 01:20:08;;;;;;;10.18;5.35;;;;;;;6.09;100.00;99915.63;5258141;28;20900;-72
2022/09/30 01:23:21;;;;;;;7.35;5.22;;;;;;;6.18;100.00;99917.09;5255289;28;20024;-72
2022/09/30 01:26:07;;;;;;;9.40;5.57;;;;;;;6.08;100.00;99915.69;5259116;28;20135;-72
2022/09/30 01:29:01;;;;;;;10.48;5.85;;;;;;;5.92;100.00;99924.78;5254214;28;20366;-71
2022/09/30 01:31:42;;;;;;;7.53;5.53;;;;;;;5.92;100.00;99917.00;5260161;28;20115;-72
2022/09/30 01:34:23;;;;;;;7.95;5.90;;;;;;;5.99;100.00;99918.53;5258261;28;20024;-72
2022/09/30 01:37:20;;;;;;;9.20;5.70;;;;;;;5.95;100.00;99917.75;5261295;28;20028;-72
2022/09/30 01:40:06;;;;;;;;;;;;;;;5.88;100.00;99920.59;5260330;28;20035;-72
2022/09/30 01:42:42;;;;;;;8.32;4.97;;;;;;;5.82;100.00;99920.72;5261413;28;20058;-71
2022/09/30 01:45:30;;;;;;;7.15;4.88;;;;;;;6.05;100.00;99920.97;5265974;28;20075;-72
2022/09/30 01:48:20;;;;;;;8.55;5.47;;;;;;;5.90;100.00;99921.38;5282269;22;20047;-78
2022/09/30 01:51:25;;;;;;;9.55;5.05;;;;;;;5.81;100.00;99926.81;5257214;28;20059;-78
2022/09/30 01:54:38;;;;;;;8.05;5.18;;;;;;;5.83;100.00;99928.47;5256949;28;20025;-78
2022/09/30 01:57:18;;;;;;;6.88;5.03;;;;;;;5.83;100.00;99927.59;5257153;28;20028;-78
2022/09/30 02:00:10;;;;;;;7.38;4.90;;;;;;;5.76;100.00;99926.88;5257375;28;20406;-78
2022/09/30 02:02:54;;;;;;;6.65;4.72;;;;;;;5.82;100.00;99933.69;5263530;28;20266;-78
2022/09/30 02:05:52;;;;;;;7.63;5.20;;;;;;;5.79;100.00;99934.63;5267553;28;20028;-78
2022/09/30 02:08:34;;;;;;;7.40;5.13;;;;;;;5.77;100.00;99938.13;5264561;28;20059;-78
2022/09/30 02:11:11;;;;;;;8.95;4.97;;;;;;;5.75;100.00;99950.28;5267245;28;20118;-78
2022/09/30 02:13:52;;;;;;;6.43;4.60;;;;;;;5.71;100.00;99946.91;5257819;28;20028;-78
2022/09/30 02:16:28;;;;;;;7.43;5.22;;;;;;;5.80;100.00;99943.25;5256361;28;20016;-77
2022/09/30 02:19:25;;;;;;;;;;;;;;;5.82;100.00;99936.28;5267510;28;20020;-78
2022/09/30 02:22:00;;;;;;;8.57;5.05;;;;;;;5.73;100.00;99936.50;5220416;28;20217;-78
2022/09/30 02:24:36;;;;;;;6.85;4.65;;;;;;;5.92;100.00;99941.19;5267147;28;20032;-77
2022/09/30 02:27:16;;;;;;;7.63;4.95;;;;;;;5.71;100.00;99931.34;5251526;28;20051;-78
2022/09/30 02:29:52;;;;;;;7.88;4.88;;;;;;;5.51;100.00;99940.53;5259715;28;20028;-78
2022/09/30 02:32:30;;;;;;;10.10;5.20;;;;;;;5.38;100.00;99944.34;5266863;28;20492;-77
2022/09/30 02:35:10;;;;;;;11.48;5.78;;;;;;;5.40;100.00;99942.56;5266859;28;20028;-78
2022/09/30 02:37:49;;;;;;;7.90;5.22;;;;;;;5.35;100.00;99943.56;5245275;28;20017;-78
2022/09/30 02:40:35;;;;;;;9.23;5.57;;;;;;;5.40;100.00;99939.97;5244484;28;20119;-77
2022/09/30 02:43:08;;;;;;;8.18;5.22;;;;;;;5.43;100.00;99940.72;5244931;28;20059;-78
2022/09/30 02:45:48;;;;;;;7.10;5.35;;;;;;;5.48;100.00;99940.59;5254456;28;20053;-77
2022/09/30 02:48:39;;;;;;;8.27;5.55;;;;;;;5.49;100.00;99931.94;5262738;28;20082;-78
2022/09/30 02:51:24;;;;;;;8.80;5.03;;;;;;;5.39;100.00;99930.50;5252933;28;20850;-78
2022/09/30 02:54:13;;;;;;;6.50;4.90;;;;;;;5.43;100.00;99932.94;5265692;28;20035;-77
2022/09/30 02:56:57;;;;;;;6.95;4.75;;;;;;;5.39;100.00;99946.03;5240426;28;20055;-78
2022/09/30 02:59:27;;;;;;;6.97;5.10;;;;;;;5.32;100.00;99941.88;5256998;28;20122;-77
2022/09/30 03:01:57;;;;;;;7.00;5.32;;;;;;;5.31;100.00;99947.94;5266167;28;20702;-77
2022/09/30 03:04:32;;;;;;;8.10;5.97;;;;;;;5.40;100.00;99945.13;5265727;28;20119;-78
2022/09/30 03:07:03;;;;;;;8.18;5.40;;;;;;;5.33;100.00;99951.34;5264920;28;20028;-78
2022/09/30 03:09:34;;;;;;;7.15;5.43;;;;;;;5.31;100.00;99947.94;5265649;28;20477;-78
2022/09/30 03:12:46;;;;;;;9.05;5.70;;;;;;;5.24;100.00;99951.59;5265067;28;20028;-78
2022/09/30 03:15:40;;;;;;;10.73;6.75;;;;;;;5.19;100.00;99952.56;5254158;28;20391;-77
2022/09/30 03:18:16;;;;;;;10.63;6.43;;;;;;;5.18;100.00;99961.25;5261013;28;20035;-78
2022/09/30 03:21:16;;;;;;;8.98;6.18;;;;;;;5.23;100.00;99960.25;5266363;28;20393;-78
2022/09/30 03:24:08;;;;;;;7.88;5.82;;;;;;;5.11;100.00;99970.88;5262144;28;20028;-77
2022/09/30 03:27:19;;;;;;;7.95;5.32;;;;;;;5.10;100.00;99969.19;5260079;28;20028;-77
2022/09/30 03:29:57;;;;;;;7.20;5.30;;;;;;;4.95;100.00;99979.88;5180228;28;20519;-77
2022/09/30 03:32:59;;;;;;;8.75;5.32;;;;;;;5.05;100.00;99968.44;5249140;28;20432;-78
2022/09/30 03:35:42;;;;;;;6.43;4.85;;;;;;;4.99;100.00;99975.50;5259766;28;20190;-78
2022/09/30 03:38:48;;;;;;;9.00;5.35;;;;;;;4.82;100.00;99985.38;5261298;28;20073;-77
2022/09/30 03:41:38;;;;;;;7.45;5.75;;;;;;;4.94;100.00;99991.13;5262634;28;20092;-78
2022/09/30 03:44:31;;;;;;;12.27;5.22;;;;;;;4.85;100.00;99988.75;5257243;28;20055;-77
2022/09/30 03:47:07;;;;;;;9.23;5.97;;;;;;;4.93;100.00;99986.84;5258870;28;20389;-77
2022/09/30 03:49:44;;;;;;;10.63;5.50;;;;;;;4.81;100.00;99988.84;5239928;28;20115;-77
2022/09/30 03:52:15;;;;;;;8.70;5.55;;;;;;;4.83;100.00;99994.84;5256535;28;20501;-78
2022/09/30 03:54:50;;;;;;;7.93;5.45;;;;;;;4.78;100.00;99997.53;5255749;28;20067;-77
2022/09/30 03:57:21;;;;;;;8.63;5.60;;;;;;;4.85;100.00;100009.47;5259627;28;20024;-78
2022/09/30 03:59:51;;;;;;;11.10;6.18;;;;;;;4.80;100.00;100008.69;5237300;28;20374;-78
2022/09/30 04:02:22;;;;;;;7.78;5.80;;;;;;;4.81;100.00;99997.47;5263812;28;20401;-78
2022/09/30 04:04:53;;;;;;;8.55;5.70;;;;;;;4.69;100.00;100002.91;5264845;28;20028;-78
2022/09/30 04:07:23;;;;;;;8.68;5.35;;;;;;;4.70;100.00;100006.34;5264014;28;20058;-77
2022/09/30 04:09:53;;;;;;;8.57;5.55;;;;;;;4.72;100.00;100000.25;5264665;28;20146;-78
2022/09/30 04:12:24;;;;;;;10.20;5.25;;;;;;;4.52;100.00;99999.81;5263955;28;20024;-77
2022/09/30 04:14:54;;;;;;;7.82;5.00;;;;;;;4.68;100.00;100001.22;5262019;28;20516;-78
2022/09/30 04:17:24;;;;;;;8.02;5.63;;;;;;;4.58;100.00;99994.53;5262231;28;20020;-78
2022/09/30 04:19:55;;;;;;;7.82;5.72;;;;;;;4.59;100.00;99996.22;5264894;28;20038;-78
2022/09/30 04:22:25;;;;;;;7.10;5.38;;;;;;;4.59;100.00;100011.75;5259506;28;20393;-77
2022/09/30 04:24:55;;;;;;;9.15;5.97;;;;;;;4.59;100.00;100011.75;5256175;28;20036;-78
2022/09/30 04:27:26;;;;;;;7.90;5.60;;;;;;;4.56;100.00;100019.56;5262816;28;20032;-78
2022/09/30 04:29:56;;;;;;;10.23;5.97;;;;;;;4.57;100.00;100018.69;5239999;28;20127;-77
2022/09/30 04:32:27;;;;;;;9.05;6.03;;;;;;;4.50;100.00;100014.50;5259450;28;20085;-78
2022/09/30 04:34:57;;;;;;;9.27;6.03;;;;;;;4.57;100.00;100023.00;5245342;28;20647;-77
2022/09/30 04:37:28;;;;;;;7.55;5.60;;;;;;;4.68;100.00;100016.75;5263339;28;20079;-77
2022/09/30 04:39:58;;;;;;;7.78;5.47;;;;;;;4.67;100.00;100022.78;5263114;28;20041;-78
2022/09/30 04:42:29;;;;;;;7.07;5.15;;;;;;;4.76;100.00;100025.19;5263428;28;20051;-78
2022/09/30 04:45:00;;;;;;;9.32;6.18;;;;;;;4.69;100.00;100023.63;5263485;28;20024;-78
2022/09/30 04:47:30;;;;;;;10.25;6.10;;;;;;;4.72;100.00;100031.31;5263785;28;20129;-78
2022/09/30 04:50:00;;;;;;;9.23;5.97;;;;;;;4.71;100.00;100029.63;5264201;28;20031;-78
2022/09/30 04:52:31;;;;;;;9.45;6.32;;;;;;;4.72;100.00;100038.22;5264098;28;20109;-78
2022/09/30 04:55:01;;;;;;;9.38;5.97;;;;;;;4.75;100.00;100039.00;5263647;28;20028;-78
2022/09/30 04:57:31;;;;;;;8.70;6.40;;;;;;;4.83;100.00;100042.28;5258694;28;20059;-77
2022/09/30 05:00:03;;;;;;;9.82;6.22;;;;;;;4.86;100.00;100046.53;5256011;28;20035;-78
2022/09/30 05:02:34;;;;;;;8.18;5.90;;;;;;;4.78;100.00;100048.47;5263346;28;20519;-77
2022/09/30 05:05:05;;;;;;;8.93;6.47;;;;;;;4.70;100.00;100056.38;5240921;28;20029;-78
2022/09/30 05:07:35;;;;;;;8.55;6.10;;;;;;;4.63;100.00;100059.13;5258823;28;20058;-78
2022/09/30 05:10:07;;;;;;;8.40;6.28;;;;;;;4.71;100.00;100060.66;5262856;28;20453;-78
2022/09/30 05:12:39;;;;;;;8.52;6.20;;;;;;;4.73;100.00;100071.84;5249732;28;20123;-78
2022/09/30 05:15:09;;;;;;;7.85;5.72;;;;;;;4.81;100.00;100061.31;5260827;28;20046;-78
2022/09/30 05:17:40;;;;;;;7.85;5.32;;;;;;;4.66;100.00;100066.81;5262394;28;20025;-78
2022/09/30 05:20:10;;;;;;;8.63;5.60;;;;;;;4.65;100.00;100072.88;5241310;28;20034;-78
2022/09/30 05:22:41;;;;;;;7.65;5.57;;;;;;;4.62;100.00;100073.78;5260533;28;20509;-78
2022/09/30 05:25:11;;;;;;;8.27;5.88;;;;;;;4.66;100.00;100070.22;5257717;28;20062;-78
2022/09/30 05:27:41;;;;;;;8.05;5.72;;;;;;;4.84;100.00;100077.63;5255232;28;20446;-78
2022/09/30 05:30:11;;;;;;;8.15;5.68;;;;;;;4.86;100.00;100073.28;5253370;28;20081;-78
2022/09/30 05:32:42;;;;;;;8.88;5.07;;;;;;;4.63;100.00;100080.66;5251351;28;20054;-78
2022/09/30 05:35:13;;;;;;;8.45;4.90;;;;;;;4.59;100.00;100083.31;5260762;28;20039;-78
2022/09/30 05:37:43;;;;;;;9.70;5.00;;;;;;;4.54;100.00;100091.19;5258389;28;20028;-78
2022/09/30 05:40:14;;;;;;;8.85;5.10;;;;;;;4.52;100.00;100092.97;5256269;28;20087;-78
2022/09/30 05:42:45;;;;;;;8.68;5.97;;;;;;;4.73;100.00;100092.53;5262455;28;20024;-78
2022/09/30 05:45:16;;;;;;;14.98;5.80;;;;;;;4.69;100.00;100105.56;5262739;28;20570;-78
2022/09/30 05:47:51;;;;;;;8.75;5.45;;;;;;;4.75;100.00;100111.47;5262210;28;20019;-78
2022/09/30 05:50:23;;;;;;;7.25;5.50;;;;;;;4.70;100.00;100107.25;5263080;28;20036;-78
2022/09/30 05:52:53;;;;;;;7.35;5.43;;;;;;;4.81;100.00;100116.53;5262963;28;20044;-78
2022/09/30 05:55:23;;;;;;;7.90;5.72;;;;;;;4.94;100.00;100117.16;5261300;28;20043;-78
2022/09/30 05:57:54;;;;;;;7.72;5.50;;;;;;;4.94;100.00;100122.31;5256658;28;20031;-78
2022/09/30 06:00:24;;;;;;;7.60;5.53;;;;;;;4.99;100.00;100126.50;5257094;28;20020;-78
2022/09/30 06:02:55;;;;;;;7.72;5.15;;;;;;;5.00;100.00;100123.03;5243094;28;20501;-78
2022/09/30 06:05:25;;;;;;;7.93;5.40;;;;;;;5.07;100.00;100116.84;5261425;28;20027;-78
2022/09/30 06:07:55;;;;;;;7.72;5.43;;;;;;;5.15;100.00;100125.31;5253712;28;20035;-78
2022/09/30 06:10:25;;;;;;;7.93;5.47;;;;;;;5.29;100.00;100117.25;5250146;28;20116;-78
2022/09/30 06:12:57;;;;;;;9.07;6.45;;;;;;;5.31;100.00;100118.06;5255811;28;20040;-78
2022/09/30 06:15:28;;;;;;;8.95;5.97;;;;;;;5.48;100.00;100119.38;5258739;28;20046;-78
2022/09/30 06:17:59;;;;;;;11.57;6.28;;;;;;;5.57;100.00;100116.59;5262813;28;20012;-78
2022/09/30 06:20:30;;;;;;;9.07;6.40;;;;;;;5.69;100.00;100121.47;5262184;28;20031;-78
2022/09/30 06:23:00;;;;;;;8.25;6.15;;;;;;;5.81;100.00;100129.03;5262765;28;20055;-78
2022/09/30 06:25:31;;;;;;;7.60;6.18;;;;;;;5.90;100.00;100126.22;5262985;28;20365;-78
2022/09/30 06:28:01;;;;;;;9.32;6.47;;;;;;;6.02;100.00;100134.56;5235882;28;20021;-78
2022/09/30 06:30:32;;;;;;;10.77;6.85;;;;;;;6.18;100.00;100127.22;5258104;28;20024;-78
2022/09/30 06:33:02;;;;;;;10.75;6.80;;;;;;;6.31;100.00;100124.31;5265927;28;20035;-78
2022/09/30 06:35:32;;;;;;;10.75;7.50;;;;;;;6.46;100.00;100136.03;5266001;28;20031;-78
2022/09/30 06:38:03;;;;;;;13.55;7.00;;;;;;;6.66;100.00;100134.63;5243021;28;20623;-78
2022/09/30 06:40:33;;;;;;;9.25;6.95;;;;;;;6.79;100.00;100133.38;5257494;28;20509;-78
2022/09/30 06:43:04;;;;;;;12.90;7.30;;;;;;;6.91;100.00;100137.41;5258720;28;20374;-78
2022/09/30 06:45:34;;;;;;;10.23;6.90;;;;;;;7.02;100.00;100145.72;5256447;28;20322;-77
2022/09/30 06:48:07;;;;;;;9.18;6.90;;;;;;;7.25;100.00;100143.34;5257489;28;20154;-78
2022/09/30 06:50:38;;;;;;;8.65;6.55;;;;;;;7.27;100.00;100149.34;5260864;28;20574;-78
2022/09/30 06:53:10;;;;;;;11.23;7.05;;;;;;;7.36;100.00;100142.13;5255007;28;20107;-78
2022/09/30 06:55:41;;;;;;;11.50;7.53;;;;;;;7.64;100.00;100148.16;5264827;28;20028;-78
2022/09/30 06:58:13;;;;;;;9.63;6.70;;;;;;;7.67;100.00;100148.94;5255673;28;20277;-78
2022/09/30 07:00:44;;;;;;;10.95;7.50;;;;;;;7.79;100.00;100151.16;5256829;28;20024;-78
2022/09/30 07:03:34;;;;;;;10.00;6.45;;;;;;;7.85;100.00;100156.16;5241884;28;20524;-79
2022/09/30 07:06:05;;;;;;;8.07;6.43;;;;;;;8.10;100.00;100151.91;5263631;28;20028;-76
2022/09/30 07:08:37;;;;;;;8.75;6.50;;;;;;;8.24;100.00;100143.69;5263920;28;20485;-78
2022/09/30 07:11:13;;;;;;;9.38;7.20;;;;;;;8.68;100.00;100154.28;5258050;28;20031;-78
2022/09/30 07:13:44;;;;;;;7.75;5.55;;;;;;;9.63;100.00;100151.63;5260714;28;20389;-78
2022/09/30 07:16:17;;;;;;;6.88;4.57;;;;;;;11.14;100.00;100156.50;5261049;28;20032;-78
2022/09/30 07:18:48;;;;;;;5.95;3.90;;;;;;;13.06;92.37;100153.19;5264413;28;20032;-79
2022/09/30 07:21:18;;;;;;;6.72;3.33;;;;;;;14.40;82.17;100136.03;5256570;28;20143;-79
2022/09/30 07:23:49;;;;;;;4.28;2.88;;;;;;;14.02;80.87;100137.34;5258125;28;20115;-79
2022/09/30 07:26:22;;;;;;;4.53;2.63;;;;;;;14.50;79.69;100145.09;5264190;28;20059;-79
2022/09/30 07:28:53;;;;;;;3.08;2.42;;;;;;;14.96;77.58;100139.66;5254514;28;20043;-79
2022/09/30 07:31:24;;;;;;;4.95;2.65;;;;;;;14.79;77.68;100149.47;5262609;28;20409;-79
2022/09/30 07:33:55;;;;;;;3.15;2.35;;;;;;;15.14;76.22;100149.06;5245394;28;20118;-79
2022/09/30 07:36:28;;;;;;;3.05;1.90;;;;;;;16.91;73.91;100142.72;5264027;28;20155;-77
2022/09/30 07:39:04;;;;;;;4.07;2.08;;;;;;;17.38;68.70;100145.63;5263352;28;20436;-79
2022/09/30 07:41:37;;;;;;;3.35;2.10;;;;;;;17.47;73.51;100152.91;5265391;28;20409;-79
2022/09/30 07:44:13;;;;;;;4.18;2.50;;;;;;;15.87;74.98;100154.09;5239277;28;20024;-79
2022/09/30 07:46:43;;;;;;;;;;;;;;;17.11;70.37;100145.69;5260909;22;20072;-74
2022/09/30 07:49:22;;;;;;;5.28;2.28;;;;;;;16.54;71.75;100159.34;5219279;28;19959;-73
2022/09/30 07:51:56;;;;;;;3.90;2.10;;;;;;;17.12;70.48;100157.13;5216223;28;20111;-73
2022/09/30 07:54:29;;;;;;;3.13;2.17;;;;;;;17.73;68.20;100162.47;5220412;28;20090;-73
2022/09/30 07:57:01;;;;;;;3.60;2.30;;;;;;;16.73;74.22;100154.53;5217219;28;20025;-74
2022/09/30 07:59:37;;;;;;;4.03;2.20;;;;;;;18.62;69.10;100156.72;5210348;28;20064;-74
2022/09/30 08:02:14;;;;;;;4.30;2.05;;;;;;;19.10;66.63;100160.00;5195853;28;20060;-74
2022/09/30 08:04:44;;;;;;;3.95;1.90;;;;;;;18.10;69.98;100164.16;5213367;28;20031;-74
2022/09/30 08:07:17;;;;;;;3.55;2.33;;;;;;;18.69;67.03;100168.56;5209566;28;20441;-73
2022/09/30 08:09:47;;;;;;;2.90;2.00;;;;;;;18.67;65.85;100165.19;5211561;28;20059;-73
2022/09/30 08:12:18;;;;;;;4.15;1.90;;;;;;;18.99;66.20;100160.00;5202354;28;20069;-74
2022/09/30 08:14:48;;;;;;;4.33;2.40;;;;;;;18.30;68.60;100155.63;5207528;28;20025;-74
2022/09/30 08:17:18;;;;;;;2.40;2.07;;;;;;;20.71;62.37;100145.09;5210895;28;20272;-74
2022/09/30 08:19:48;;;;;;;3.07;2.10;;;;;;;19.20;64.83;100161.00;5210134;28;20276;-74
2022/09/30 08:22:19;;;;;;;3.97;2.20;;;;;;;18.42;67.03;100158.22;5211453;28;20279;-74
2022/09/30 08:24:49;;;;;;;3.33;2.17;;;;;;;18.67;66.41;100159.91;5210359;28;20374;-73
2022/09/30 08:27:20;;;;;;;3.67;1.80;;;;;;;18.59;66.01;100167.53;5211371;28;20021;-74
2022/09/30 08:29:50;;;;;;;3.28;2.10;;;;;;;19.61;65.57;100155.97;5201721;28;20276;-74
2022/09/30 08:32:20;;;;;;;2.90;1.83;;;;;;;20.40;64.25;100163.66;5208386;28;20025;-74
2022/09/30 08:34:51;;;;;;;4.50;2.27;;;;;;;19.90;63.60;100158.94;5210426;28;20040;-74
2022/09/30 08:37:22;;;;;;;3.35;2.00;;;;;;;20.14;63.58;100164.97;5209260;28;20330;-74
2022/09/30 08:39:53;;;;;;;3.97;2.17;;;;;;;19.85;63.35;100164.63;5192392;28;20479;-74
2022/09/30 08:42:32;;;;;;;3.40;2.10;;;;;;;20.53;63.24;100162.56;5209944;28;20115;-74
2022/09/30 08:45:09;;;;;;;3.35;2.08;;;;;;;19.22;67.27;100176.78;5212076;28;20056;-74
2022/09/30 08:47:45;;;;;;;4.68;2.30;;;;;;;19.85;66.07;100175.25;5211403;28;20116;-74
2022/09/30 08:50:29;;;;;;;3.92;2.42;;;;;;;18.47;70.94;100182.53;5194138;28;20027;-74
2022/09/30 08:53:09;;;;;;;2.42;1.90;;;;;;;20.15;64.74;100179.94;5212332;28;20390;-74
2022/09/30 08:55:43;;;;;;;3.05;2.38;;;;;;;18.90;67.06;100179.22;5212310;28;20569;-73
2022/09/30 08:58:25;;;;;;;4.75;2.47;;;;;;;19.87;65.08;100188.38;5203392;28;20538;-73
2022/09/30 09:01:21;;;;;;;4.30;2.95;;;;;;;18.02;69.29;100196.44;5207407;28;20364;-74
2022/09/30 09:03:52;;;;;;;4.20;2.70;;;;;;;17.57;70.82;100191.78;5187502;28;20462;-73
2022/09/30 09:06:35;;;;;;;4.57;3.20;;;;;;;16.53;75.87;100199.88;5211034;28;20048;-73
2022/09/30 09:09:11;;;;;;;4.70;3.22;;;;;;;16.49;76.44;100195.75;5206198;28;20509;-73
2022/09/30 09:12:26;;;;;;;4.35;2.92;;;;;;;16.63;77.46;100200.13;5212017;28;20052;-73
2022/09/30 09:15:14;;;;;;;5.80;4.13;;;;;;;16.32;77.73;100200.38;5107608;29;20589;-73
2022/09/30 09:18:00;;;;;;;7.00;3.55;;;;;;;16.46;78.27;100201.25;5208604;28;20030;-74
2022/09/30 09:20:40;;;;;;;5.93;4.00;;;;;;;16.41;76.97;100200.66;5207934;28;20525;-74
2022/09/30 09:23:12;;;;;;;6.47;4.20;;;;;;;16.38;78.27;100206.16;5208416;28;20021;-73
2022/09/30 09:25:45;;;;;;;6.78;4.22;;;;;;;16.37;81.10;100198.34;5211557;28;20628;-74
2022/09/30 09:28:27;;;;;;;7.60;4.90;;;;;;;15.75;78.79;100204.97;5208257;28;20033;-73
2022/09/30 09:30:59;;;;;;;6.05;4.60;;;;;;;16.12;79.92;100199.06;5210422;28;20102;-73
2022/09/30 09:33:40;;;;;;;7.03;5.03;;;;;;;16.08;80.38;100192.25;5212036;28;20209;-73
2022/09/30 09:36:40;;;;;;;7.40;4.97;;;;;;;16.31;81.84;100190.78;5207769;28;20096;-72
2022/09/30 09:39:25;;;;;;;11.38;7.38;;;;;;;16.50;79.28;100189.53;5201056;28;20657;-73
2022/09/30 09:42:22;;;;;;;11.32;7.07;;;;;;;16.38;78.09;100187.69;5209045;28;20068;-73
2022/09/30 09:45:21;;;;;;;11.15;7.07;;;;;;;16.55;79.18;100181.31;5209840;28;20265;-73
2022/09/30 09:47:52;;;;;;;11.77;6.97;;;;;;;16.70;77.09;100175.03;5211120;28;20525;-73
2022/09/30 09:50:48;;;;;;;10.55;7.50;;;;;;;16.39;77.28;100183.28;5209843;28;20067;-73
2022/09/30 09:53:38;;;;;;;9.25;6.22;;;;;;;15.96;78.97;100184.28;5199987;28;20076;-73
2022/09/30 09:56:20;;;;;;;6.82;5.40;;;;;;;16.26;78.37;100170.00;5206020;28;20585;-73
2022/09/30 09:59:16;;;;;;;11.30;7.90;;;;;;;16.48;76.81;100178.22;5194576;28;20080;-73
2022/09/30 10:01:52;;;;;;;11.53;7.57;;;;;;;16.47;78.66;100178.31;5208821;28;20048;-73
2022/09/30 10:04:26;;;;;;;12.25;8.50;;;;;;;16.32;75.49;100174.88;5213225;28;20047;-73
2022/09/30 10:07:10;;;;;;;13.52;8.68;;;;;;;16.26;76.53;100163.88;5200445;28;20037;-73
2022/09/30 10:09:41;;;;;;;11.02;8.32;;;;;;;16.27;78.68;100161.16;5195429;28;20032;-73
2022/09/30 10:12:12;;;;;;;10.95;8.45;;;;;;;16.56;76.61;100167.19;5208898;28;20025;-73
2022/09/30 10:14:57;;;;;;;12.73;9.07;;;;;;;16.63;75.62;100163.16;5212779;28;20043;-73
2022/09/30 10:17:31;;;;;;;12.23;9.05;;;;;;;16.44;75.04;100167.97;5209556;28;20272;-73
2022/09/30 10:20:04;;;;;;;8.88;6.70;;;;;;;16.44;74.40;100162.69;5214601;28;20537;-73
2022/09/30 10:22:35;;;;;;;11.80;7.38;;;;;;;16.64;73.34;100162.22;5214087;28;20386;-74
2022/09/30 10:25:22;;;;;;;13.23;8.10;;;;;;;16.53;74.41;100162.94;5214855;28;20040;-72
2022/09/30 10:27:59;;;;;;;9.70;7.75;;;;;;;16.33;74.22;100176.56;5206877;28;20039;-73
2022/09/30 10:30:29;;;;;;;9.88;7.75;;;;;;;16.55;75.84;100171.59;5211006;28;20136;-73
2022/09/30 10:33:03;;;;;;;6.57;5.40;;;;;;;16.37;74.01;100175.44;5214269;28;20108;-73
2022/09/30 10:35:33;;;;;;;7.95;5.15;;;;;;;16.38;73.39;100168.38;5210547;28;20766;-73
2022/09/30 10:38:03;;;;;;;9.40;5.13;;;;;;;16.68;76.60;100169.84;5214252;28;20060;-73
2022/09/30 10:40:34;;;;;;;9.23;5.63;;;;;;;16.55;72.98;100176.88;5214470;28;20029;-73
2022/09/30 10:43:04;;;;;;;9.35;5.32;;;;;;;16.33;72.35;100173.94;5214796;28;20033;-73
2022/09/30 10:45:37;;;;;;;7.57;4.95;;;;;;;16.49;72.30;100171.16;5213462;28;20386;-74
2022/09/30 10:48:18;;;;;;;7.78;4.35;;;;;;;16.63;72.38;100173.72;5210024;28;20030;-72
2022/09/30 10:50:53;;;;;;;6.82;3.92;;;;;;;16.71;70.09;100174.91;5212692;28;20079;-73
2022/09/30 10:53:28;;;;;;;8.10;4.30;;;;;;;16.96;71.47;100169.69;5211983;28;20033;-73
2022/09/30 10:56:00;;;;;;;7.80;4.60;;;;;;;16.94;69.54;100169.78;5214219;28;20025;-73
2022/09/30 10:58:53;;;;;;;7.43;5.30;;;;;;;17.04;69.60;100167.34;5203940;28;20033;-73
2022/09/30 11:01:34;;;;;;;6.88;4.68;;;;;;;17.03;71.19;100163.03;5210533;28;20178;-73
2022/09/30 11:04:20;;;;;;;10.25;5.78;;;;;;;17.22;71.45;100164.31;5214537;28;20029;-73
2022/09/30 11:06:58;;;;;;;8.20;5.88;;;;;;;17.20;72.89;100168.00;5197722;28;20044;-73
2022/09/30 11:09:33;;;;;;;13.40;5.90;;;;;;;17.14;71.59;100165.78;5210645;28;20578;-73
2022/09/30 11:12:43;;;;;;;9.07;5.95;;;;;;;16.99;71.43;100161.56;5213489;28;20028;-73
2022/09/30 11:15:20;;;;;;;14.32;6.22;;;;;;;16.71;70.85;100166.16;5207614;28;20089;-73
2022/09/30 11:18:00;;;;;;;9.15;5.45;;;;;;;16.69;72.03;100165.41;5213606;28;20033;-73
2022/09/30 11:20:35;;;;;;;9.00;4.10;;;;;;;16.58;72.61;100158.19;5213690;28;20113;-73
2022/09/30 11:23:19;;;;;;;7.72;4.40;;;;;;;16.79;70.33;100164.69;5196849;28;20036;-73
2022/09/30 11:26:18;;;;;;;8.80;5.47;;;;;;;16.86;72.10;100153.63;5215583;28;20506;-74
2022/09/30 11:29:10;;;;;;;7.47;5.32;;;;;;;17.07;71.51;100156.56;5207581;28;20048;-73
2022/09/30 11:31:55;;;;;;;10.70;5.20;;;;;;;17.02;69.79;100156.06;5210580;28;20514;-73
2022/09/30 11:34:44;;;;;;;7.25;4.40;;;;;;;16.72;70.43;100158.13;5210966;28;20401;-73
2022/09/30 11:37:47;;;;;;;9.13;5.20;;;;;;;16.77;71.46;100153.41;5209727;28;20030;-74
2022/09/30 11:40:37;;;;;;;10.48;5.60;;;;;;;16.53;70.19;100155.03;5205477;28;20052;-73
2022/09/30 11:43:15;;;;;;;8.60;4.50;;;;;;;16.48;71.14;100159.78;5202695;28;20377;-73
2022/09/30 11:45:55;;;;;;;6.70;4.45;;;;;;;16.55;70.95;100157.56;5211703;28;20102;-74
2022/09/30 11:48:36;;;;;;;7.75;4.38;;;;;;;16.53;71.16;100154.19;5212687;28;20086;-73
2022/09/30 11:51:34;;;;;;;7.75;3.72;;;;;;;16.63;70.69;100156.13;5209545;28;20632;-73
2022/09/30 11:54:07;;;;;;;8.35;3.80;;;;;;;16.64;71.71;100159.59;5201672;28;20036;-73
2022/09/30 11:56:47;;;;;;;7.38;3.95;;;;;;;16.53;69.65;100162.09;5209207;28;20450;-73
2022/09/30 11:59:33;;;;;;;6.00;3.65;;;;;;;16.52;69.56;100165.69;5202252;28;20399;-73
2022/09/30 12:02:17;;;;;;;8.20;4.50;;;;;;;16.45;69.44;100159.97;5201691;28;20025;-73
2022/09/30 12:04:55;;;;;;;5.82;3.42;;;;;;;16.51;71.41;100162.19;5210968;28;20029;-74
2022/09/30 12:07:35;;;;;;;5.38;3.10;;;;;;;16.48;71.02;100162.41;5210192;28;20048;-73
2022/09/30 12:10:14;;;;;;;4.75;2.60;;;;;;;16.64;71.43;100164.84;5194965;28;20079;-73
2022/09/30 12:12:48;;;;;;;8.10;4.03;;;;;;;16.59;70.81;100167.78;5209372;28;20395;-74
2022/09/30 12:15:22;;;;;;;12.13;4.68;;;;;;;16.72;70.94;100163.41;5210652;28;20049;-73